Главная страница
METAR-TAF:

METAR-TAF

Аэропорты :

Tulita, Северо-Западные Территории, Канада

широта: 64-55N, долгота: 125-34W, высота над уровнем моря: 98 м

Текущие метеонаблюдения

Эта сводка был подготовлена 46 минут назад, в 19:00 UTC
Ветер 9 Узел от западный
Температура 1°C
Влажность 55%
Давление 1026 hPa
Видимость: 32.2 км
небольшая облачность на высоте 5000 фута
небольшая облачность на высоте 18000 фута

METAR: CZFN 181900Z 26009KT 20SM FEW050 FEW180 01/M07 A3029 RMK SC1AS1 SLP267

Время: 13:46 (19:46 UTC)


TAF: отсутствует

Метеонаблюдения и прогнозы для более 4000 аэропортов (сводки METAR и TAF).

Имеющиеся станции представлены на карте желтыми и красными точками.

Чтобы увидеть название станции, наведите на нее мышь.

Затем щелкните, чтобы увидеть метеонаблюдения и метеопрогнозы.

Управление картой: чтобы увеличить масштаб, щелкните зеленые кнопки с черным крестиком; чтобы уменьшить масштаб, щелкните зеленую кнопку с тире; для просмотра соседних карт щелкайте зеленые стрелки.


METAR-TAF: